Time;durP1;ratioP1;P1;durP2;ratioP2;P2;SDS_P1;SDS_P2;PMS_P1;PMS_P2;Temp;Humidity;BMP_temperature;BMP_pressure;BME280_temperature;BME280_humidity;BME280_pressure;Samples;Min_cycle;Max_cycle;Signal;HPM_P1;HPM_P2
2022/06/03 00:02:19;;;;;;;12.53;6.90;;;;;;;;;;5082592;28;20047;-74
2022/06/03 00:04:45;;;;;;;9.95;6.28;;;;;;;;;;5070619;28;20452;-74
2022/06/03 00:07:21;;;;;;;11.02;6.18;;;;;;;;;;5070363;28;20079;-74
2022/06/03 00:09:55;;;;;;;12.10;6.47;;;;;;;;;;5058922;28;20190;-75
2022/06/03 00:12:23;;;;;;;10.23;6.53;;;;;;;;;;5073398;28;20080;-74
2022/06/03 00:15:01;;;;;;;11.20;6.45;;;;;;;;;;5061935;28;20041;-74
2022/06/03 00:17:48;;;;;;;9.05;6.22;;;;;;;;;;5059271;28;20885;-75
2022/06/03 00:20:33;;;;;;;8.27;5.40;;;;;;;;;;5073538;28;20044;-74
2022/06/03 00:23:14;;;;;;;9.50;6.18;;;;;;;;;;5075377;28;20130;-74
2022/06/03 00:25:46;;;;;;;11.57;5.70;;;;;;;;;;5066023;28;20103;-74
2022/06/03 00:28:12;;;;;;;8.35;5.72;;;;;;;;;;5065224;28;20044;-74
2022/06/03 00:30:38;;;;;;;9.43;5.20;;;;;;;;;;5075867;28;20032;-74
2022/06/03 00:33:23;;;;;;;10.05;5.60;;;;;;;;;;5072284;28;20445;-74
2022/06/03 00:35:56;;;;;;;9.20;5.60;;;;;;;;;;5065624;28;20045;-74
2022/06/03 00:38:22;;;;;;;9.00;5.60;;;;;;;;;;5058730;28;20077;-74
2022/06/03 00:40:54;;;;;;;9.05;5.70;;;;;;;;;;5073554;28;20556;-74
2022/06/03 00:43:35;;;;;;;11.23;5.68;;;;;;;;;;5069648;28;20183;-74
2022/06/03 00:46:01;;;;;;;9.82;5.57;;;;;;;;;;5063288;28;20040;-74
2022/06/03 00:48:49;;;;;;;10.65;5.53;;;;;;;;;;5069785;28;20048;-74
2022/06/03 00:51:27;;;;;;;10.13;5.53;;;;;;;;;;5054788;28;20045;-74
2022/06/03 00:54:06;;;;;;;9.57;5.45;;;;;;;;;;5065499;28;20185;-74
2022/06/03 00:56:35;;;;;;;9.10;5.75;;;;;;;;;;5059339;28;20442;-74
2022/06/03 00:59:16;;;;;;;9.68;6.03;;;;;;;;;;5054033;28;20037;-74
2022/06/03 01:02:04;;;;;;;9.50;5.55;;;;;;;;;;5074146;28;20048;-74
2022/06/03 01:04:49;;;;;;;9.55;6.15;;;;;;;;;;5074709;28;20119;-73
2022/06/03 01:07:18;;;;;;;11.32;7.00;;;;;;;;;;5063130;28;20044;-74
2022/06/03 01:10:00;;;;;;;12.05;7.43;;;;;;;;;;5059147;28;20048;-74
2022/06/03 01:12:26;;;;;;;10.52;7.30;;;;;;;;;;5054278;28;20045;-75
2022/06/03 01:14:57;;;;;;;11.60;7.65;;;;;;;;;;5067194;28;20041;-73
2022/06/03 01:17:23;;;;;;;;;;;;;;;;;;5066210;28;20476;-74
2022/06/03 01:20:09;;;;;;;11.88;7.53;;;;;;;;;;5069166;28;19963;-74
2022/06/03 01:22:38;;;;;;;11.02;7.30;;;;;;;;;;5072634;28;20056;-74
2022/06/03 01:25:23;;;;;;;11.75;7.45;;;;;;;;;;5073643;28;20094;-74
2022/06/03 01:28:01;;;;;;;10.27;6.95;;;;;;;;;;5073032;28;20060;-75
2022/06/03 01:30:30;;;;;;;11.23;7.47;;;;;;;;;;5062062;28;20406;-75
2022/06/03 01:33:17;;;;;;;10.77;6.65;;;;;;;;;;5073728;28;20443;-75
2022/06/03 01:35:49;;;;;;;12.23;6.95;;;;;;;;;;5077029;28;20490;-74
2022/06/03 01:38:17;;;;;;;14.60;7.30;;;;;;;;;;5071523;28;20048;-75
2022/06/03 01:40:58;;;;;;;9.40;6.72;;;;;;;;;;5072734;28;20064;-75
2022/06/03 01:43:36;;;;;;;12.35;7.50;;;;;;;;;;5065923;28;20052;-75
2022/06/03 01:46:15;;;;;;;11.45;7.32;;;;;;;;;;5053924;28;20068;-74
2022/06/03 01:49:02;;;;;;;13.00;7.78;;;;;;;;;;5058843;28;20071;-75
2022/06/03 01:51:40;;;;;;;11.75;8.50;;;;;;;;;;5067372;28;20047;-74
2022/06/03 01:54:26;;;;;;;14.10;9.55;;;;;;;;;;5062637;28;20517;-74
2022/06/03 01:57:24;;;;;;;13.23;8.98;;;;;;;;;;5073170;28;20380;-74
2022/06/03 01:59:50;;;;;;;14.77;8.70;;;;;;;;;;5070413;28;20056;-74
2022/06/03 02:02:29;;;;;;;12.38;8.77;;;;;;;;;;5070479;28;20072;-74
2022/06/03 02:05:13;;;;;;;11.90;8.80;;;;;;;;;;5062373;28;20053;-74
2022/06/03 02:07:48;;;;;;;11.98;8.07;;;;;;;;;;5067981;28;20076;-74
2022/06/03 02:10:43;;;;;;;15.27;8.48;;;;;;;;;;5080021;28;20102;-74
2022/06/03 02:13:21;;;;;;;10.93;7.65;;;;;;;;;;4988726;28;20075;-74
2022/06/03 02:15:47;;;;;;;11.10;8.25;;;;;;;;;;4993693;28;20500;-74
2022/06/03 02:18:27;;;;;;;11.52;8.20;;;;;;;;;;5006621;28;20050;-74
2022/06/03 02:21:01;;;;;;;10.57;8.05;;;;;;;;;;4989653;28;20444;-74
2022/06/03 02:23:33;;;;;;;13.80;8.98;;;;;;;;;;5005319;28;20065;-75
2022/06/03 02:26:02;;;;;;;15.65;8.50;;;;;;;;;;4991112;28;20050;-75
2022/06/03 02:28:39;;;;;;;12.18;8.77;;;;;;;;;;4991380;28;20575;-74
2022/06/03 02:31:05;;;;;;;14.32;8.45;;;;;;;;;;5007246;28;20187;-75
2022/06/03 02:33:43;;;;;;;13.48;8.20;;;;;;;;;;4990368;28;20046;-74
2022/06/03 02:36:12;;;;;;;15.88;8.18;;;;;;;;;;4991561;28;20054;-75
2022/06/03 02:38:56;;;;;;;11.95;8.85;;;;;;;;;;4991573;28;20071;-74
2022/06/03 02:41:22;;;;;;;13.20;8.77;;;;;;;;;;5012272;28;20076;-75
2022/06/03 02:43:57;;;;;;;12.00;9.00;;;;;;;;;;4991648;28;20061;-74
2022/06/03 02:46:44;;;;;;;14.55;9.02;;;;;;;;;;4991930;28;20084;-75
2022/06/03 02:49:28;;;;;;;14.70;8.75;;;;;;;;;;5014068;28;20150;-75
2022/06/03 02:52:00;;;;;;;16.48;8.75;;;;;;;;;;5070290;28;20406;-74
2022/06/03 02:54:26;;;;;;;12.43;8.15;;;;;;;;;;5052749;28;20040;-75
2022/06/03 02:57:10;;;;;;;12.88;9.15;;;;;;;;;;5067271;28;20178;-75
2022/06/03 02:59:54;;;;;;;15.45;9.98;;;;;;;;;;5052643;28;20056;-75
2022/06/03 03:02:26;;;;;;;13.48;9.30;;;;;;;;;;5066304;28;20041;-75
2022/06/03 03:04:52;;;;;;;18.10;10.65;;;;;;;;;;5051674;28;20057;-75
2022/06/03 03:07:31;;;;;;;15.80;10.52;;;;;;;;;;5052243;28;20044;-75
2022/06/03 03:10:06;;;;;;;16.40;10.30;;;;;;;;;;5069314;28;20044;-75
2022/06/03 03:12:41;;;;;;;15.07;10.63;;;;;;;;;;5065717;28;20040;-75
2022/06/03 03:15:13;;;;;;;13.98;9.77;;;;;;;;;;5061095;28;20688;-75
2022/06/03 03:18:06;;;;;;;12.68;9.13;;;;;;;;;;5071956;28;20406;-75
2022/06/03 03:20:51;;;;;;;17.92;9.30;;;;;;;;;;5069607;28;20064;-74
2022/06/03 03:23:23;;;;;;;13.73;9.00;;;;;;;;;;5052223;28;20116;-75
2022/06/03 03:25:59;;;;;;;15.20;9.35;;;;;;;;;;5052848;28;20041;-74
2022/06/03 03:28:40;;;;;;;11.52;8.70;;;;;;;;;;5054159;28;20124;-74
2022/06/03 03:31:27;;;;;;;14.32;9.70;;;;;;;;;;5070427;28;20084;-74
2022/06/03 03:33:59;;;;;;;16.65;10.05;;;;;;;;;;5065262;28;20087;-74
2022/06/03 03:36:39;;;;;;;16.25;9.98;;;;;;;;;;5052098;28;20073;-73
2022/06/03 03:39:05;;;;;;;15.10;10.70;;;;;;;;;;5065892;28;20055;-73
2022/06/03 03:41:43;;;;;;;15.10;10.60;;;;;;;;;;5095948;28;20048;-73
2022/06/03 03:44:16;;;;;;;17.75;11.07;;;;;;;;;;5064211;28;20102;-74
2022/06/03 03:46:48;;;;;;;16.55;10.38;;;;;;;;;;5065897;28;20081;-73
2022/06/03 03:49:32;;;;;;;15.82;10.43;;;;;;;;;;5072625;28;20090;-74
2022/06/03 03:52:10;;;;;;;14.30;10.45;;;;;;;;;;5077401;28;20514;-74
2022/06/03 03:54:49;;;;;;;14.32;9.77;;;;;;;;;;5083543;28;20098;-75
2022/06/03 03:57:30;;;;;;;13.68;9.77;;;;;;;;;;5085642;28;20044;-75
2022/06/03 04:00:15;;;;;;;15.13;9.77;;;;;;;;;;5060323;28;20108;-74
2022/06/03 04:02:43;;;;;;;14.35;10.35;;;;;;;;;;5059252;28;20095;-75
2022/06/03 04:05:20;;;;;;;13.55;9.60;;;;;;;;;;5063259;28;20090;-75
2022/06/03 04:07:49;;;;;;;13.88;9.18;;;;;;;;;;5060972;28;20499;-74
2022/06/03 04:10:27;;;;;;;15.57;10.30;;;;;;;;;;5087333;28;20045;-75
2022/06/03 04:13:10;;;;;;;13.38;10.07;;;;;;;;;;5067223;28;20051;-75
2022/06/03 04:15:55;;;;;;;15.45;10.35;;;;;;;;;;5074003;28;20127;-75
2022/06/03 04:18:26;;;;;;;14.18;9.60;;;;;;;;;;5076994;28;20051;-75
2022/06/03 04:20:57;;;;;;;14.48;9.25;;;;;;;;;;5075019;28;20048;-75
2022/06/03 04:23:29;;;;;;;14.13;9.02;;;;;;;;;;5059776;28;20049;-75
2022/06/03 04:26:14;;;;;;;13.30;7.78;;;;;;;;;;5063159;28;20041;-75
2022/06/03 04:28:54;;;;;;;12.73;7.93;;;;;;;;;;5072823;28;20056;-74
2022/06/03 04:31:23;;;;;;;11.23;7.50;;;;;;;;;;5058867;28;20536;-74
2022/06/03 04:33:54;;;;;;;10.43;7.60;;;;;;;;;;5079516;28;20062;-74
2022/06/03 04:36:43;;;;;;;10.05;7.45;;;;;;;;;;5062448;28;20040;-74
2022/06/03 04:39:12;;;;;;;12.23;8.05;;;;;;;;;;5057049;28;20109;-74
2022/06/03 04:41:57;;;;;;;12.48;8.20;;;;;;;;;;5053863;28;20045;-74
2022/06/03 04:44:41;;;;;;;14.45;8.15;;;;;;;;;;5071910;28;20402;-74
2022/06/03 04:47:22;;;;;;;11.82;8.80;;;;;;;;;;5070846;28;20044;-75
2022/06/03 04:49:57;;;;;;;14.15;8.65;;;;;;;;;;5063617;28;20052;-74
2022/06/03 04:52:29;;;;;;;13.88;9.52;;;;;;;;;;5074611;28;20063;-74
2022/06/03 04:55:14;;;;;;;16.98;9.18;;;;;;;;;;5090322;28;20508;-74
2022/06/03 04:57:58;;;;;;;14.48;9.75;;;;;;;;;;5054920;28;20076;-74
2022/06/03 05:00:35;;;;;;;15.35;9.90;;;;;;;;;;5060621;28;20086;-75
2022/06/03 05:03:20;;;;;;;13.65;9.50;;;;;;;;;;5074314;28;20048;-74
2022/06/03 05:05:49;;;;;;;15.00;9.82;;;;;;;;;;5055783;28;20041;-74
2022/06/03 05:08:21;;;;;;;13.90;10.45;;;;;;;;;;5062512;28;20044;-74
2022/06/03 05:11:06;;;;;;;15.77;10.60;;;;;;;;;;5054665;28;20041;-74
2022/06/03 05:13:58;;;;;;;16.08;10.88;;;;;;;;;;5072126;28;20048;-75
2022/06/03 05:16:24;;;;;;;13.70;10.65;;;;;;;;;;5046654;28;20061;-75
2022/06/03 05:18:54;;;;;;;14.65;10.85;;;;;;;;;;5073599;28;20094;-76
2022/06/03 05:21:32;;;;;;;17.27;11.32;;;;;;;;;;5060241;28;20409;-75
2022/06/03 05:24:02;;;;;;;16.80;10.73;;;;;;;;;;5056037;28;20048;-75
2022/06/03 05:26:48;;;;;;;15.40;10.85;;;;;;;;;;5096798;28;20051;-75
2022/06/03 05:29:32;;;;;;;15.05;10.52;;;;;;;;;;5072676;28;20043;-74
2022/06/03 05:32:07;;;;;;;19.23;10.35;;;;;;;;;;5059484;28;20406;-75
2022/06/03 05:34:36;;;;;;;13.05;9.55;;;;;;;;;;5065165;28;20037;-74
2022/06/03 05:37:21;;;;;;;12.15;8.90;;;;;;;;;;5058281;28;20060;-73
2022/06/03 05:39:58;;;;;;;13.32;8.68;;;;;;;;;;5061954;28;20499;-73
2022/06/03 05:42:39;;;;;;;11.98;7.82;;;;;;;;;;5065441;28;20057;-73
2022/06/03 05:45:24;;;;;;;11.38;7.90;;;;;;;;;;5053946;28;20053;-74
2022/06/03 05:48:08;;;;;;;13.77;7.53;;;;;;;;;;5054481;28;20398;-74
2022/06/03 05:50:45;;;;;;;12.90;6.97;;;;;;;;;;5074717;28;20068;-74
2022/06/03 05:53:15;;;;;;;8.98;6.40;;;;;;;;;;5053625;28;20058;-73
2022/06/03 05:55:41;;;;;;;11.50;6.32;;;;;;;;;;5072018;28;20090;-74
2022/06/03 05:58:07;;;;;;;8.93;6.80;;;;;;;;;;5064063;28;20102;-73
2022/06/03 06:00:39;;;;;;;11.27;6.50;;;;;;;;;;5054826;28;20052;-73
2022/06/03 06:03:14;;;;;;;11.77;6.65;;;;;;;;;;5054001;28;20486;-73
2022/06/03 06:05:46;;;;;;;10.68;6.32;;;;;;;;;;5056146;28;20070;-73
2022/06/03 06:08:12;;;;;;;8.07;5.15;;;;;;;;;;5053359;28;20087;-73
2022/06/03 06:10:44;;;;;;;10.73;5.97;;;;;;;;;;5058024;28;20546;-73
2022/06/03 06:13:10;;;;;;;9.02;5.32;;;;;;;;;;5057092;28;20166;-74
2022/06/03 06:15:46;;;;;;;9.73;5.18;;;;;;;;;;5071719;28;21173;-73
2022/06/03 06:18:31;;;;;;;10.40;5.60;;;;;;;;;;5056253;28;20049;-73
2022/06/03 06:21:03;;;;;;;9.85;5.25;;;;;;;;;;5053246;28;20047;-72
2022/06/03 06:23:39;;;;;;;9.45;5.53;;;;;;;;;;5053234;28;20052;-74
2022/06/03 06:26:24;;;;;;;9.07;5.38;;;;;;;;;;5053328;28;20051;-74
2022/06/03 06:28:50;;;;;;;9.85;5.72;;;;;;;;;;5058687;28;20040;-74
2022/06/03 06:31:27;;;;;;;8.40;5.22;;;;;;;;;;5072537;28;20045;-74
2022/06/03 06:34:04;;;;;;;6.65;4.72;;;;;;;;;;5065283;28;20048;-74
2022/06/03 06:36:48;;;;;;;9.48;4.90;;;;;;;;;;5052819;28;20043;-74
2022/06/03 06:39:33;;;;;;;7.70;4.40;;;;;;;;;;5061135;28;20115;-74
2022/06/03 06:42:08;;;;;;;9.05;4.32;;;;;;;;;;5072768;28;20059;-74
2022/06/03 06:44:53;;;;;;;7.95;4.00;;;;;;;;;;5070342;28;20127;-74
2022/06/03 06:47:39;;;;;;;7.75;4.43;;;;;;;;;;5072890;28;20048;-73
2022/06/03 06:50:17;;;;;;;9.05;4.78;;;;;;;;;;5067018;28;20093;-73
2022/06/03 06:53:02;;;;;;;7.90;4.53;;;;;;;;;;5072730;28;20055;-74
2022/06/03 06:55:28;;;;;;;8.93;4.75;;;;;;;;;;5072512;28;20044;-75
2022/06/03 06:57:56;;;;;;;10.10;5.25;;;;;;;;;;5071185;28;20045;-73
2022/06/03 07:00:24;;;;;;;9.07;5.18;;;;;;;;;;5071545;28;20414;-73
2022/06/03 07:02:50;;;;;;;7.18;4.40;;;;;;;;;;5072079;28;20066;-75
2022/06/03 07:05:23;;;;;;;8.52;4.38;;;;;;;;;;5071140;28;20055;-74
2022/06/03 07:07:55;;;;;;;8.60;4.10;;;;;;;;;;5072448;28;20052;-76
2022/06/03 07:10:29;;;;;;;8.30;4.07;;;;;;;;;;5073063;28;20059;-74
2022/06/03 07:13:10;;;;;;;9.82;4.60;;;;;;;;;;5068833;28;20057;-72
2022/06/03 07:15:45;;;;;;;7.72;4.78;;;;;;;;;;5075198;28;20044;-74
2022/06/03 07:21:13;;;;;;;14.88;5.28;;;;;;;;;;5076205;28;20056;-73
2022/06/03 07:23:45;;;;;;;9.82;4.63;;;;;;;;;;5071783;28;20048;-75
2022/06/03 07:26:17;;;;;;;9.82;4.90;;;;;;;;;;5076057;28;20040;-75
2022/06/03 07:28:53;;;;;;;7.93;4.25;;;;;;;;;;5075847;28;20083;-74
2022/06/03 07:31:31;;;;;;;10.30;3.92;;;;;;;;;;5075285;28;20048;-74
2022/06/03 07:34:03;;;;;;;7.43;3.78;;;;;;;;;;5075130;28;20059;-73
2022/06/03 07:36:34;;;;;;;7.22;4.18;;;;;;;;;;5076041;28;20053;-74
2022/06/03 07:39:25;;;;;;;9.57;4.30;;;;;;;;;;5104546;28;20075;-74
2022/06/03 07:41:54;;;;;;;6.05;3.67;;;;;;;;;;5068533;28;20105;-73
2022/06/03 07:44:34;;;;;;;8.00;3.90;;;;;;;;;;5056260;28;20048;-74
2022/06/03 07:47:02;;;;;;;7.80;4.03;;;;;;;;;;5062294;28;20043;-74
2022/06/03 07:49:31;;;;;;;7.10;3.80;;;;;;;;;;5075826;28;20056;-72
2022/06/03 07:52:23;;;;;;;6.70;3.80;;;;;;;;;;5071594;28;20052;-74
2022/06/03 07:54:57;;;;;;;6.97;3.60;;;;;;;;;;5075585;28;20045;-74
2022/06/03 07:57:27;;;;;;;7.60;3.70;;;;;;;;;;5079165;28;20048;-73
2022/06/03 08:00:00;;;;;;;6.90;3.50;;;;;;;;;;5057880;28;20045;-72
2022/06/03 08:02:27;;;;;;;6.63;3.60;;;;;;;;;;5064132;28;20055;-73
2022/06/03 08:05:04;;;;;;;8.18;3.58;;;;;;;;;;5076840;28;20095;-73
2022/06/03 08:13:14;;;;;;;7.03;3.63;;;;;;;;;;5073880;28;20129;-73
2022/06/03 08:15:42;;;;;;;7.82;3.70;;;;;;;;;;5056190;28;20084;-72
2022/06/03 08:18:09;;;;;;;9.25;4.10;;;;;;;;;;5069923;28;20060;-72
2022/06/03 08:20:40;;;;;;;9.10;4.10;;;;;;;;;;5072297;28;20048;-75
2022/06/03 08:23:06;;;;;;;8.40;4.07;;;;;;;;;;5064600;28;20077;-72
2022/06/03 08:25:36;;;;;;;7.97;3.70;;;;;;;;;;5064201;28;20063;-73
2022/06/03 08:28:02;;;;;;;8.48;4.68;;;;;;;;;;5069062;28;20098;-73
2022/06/03 08:30:29;;;;;;;6.97;3.90;;;;;;;;;;5061567;28;20037;-74
2022/06/03 08:33:00;;;;;;;8.63;3.70;;;;;;;;;;5053659;28;20380;-73
2022/06/03 08:35:28;;;;;;;11.48;3.53;;;;;;;;;;5069291;28;20044;-74
2022/06/03 08:38:03;;;;;;;8.55;3.75;;;;;;;;;;5069974;28;20144;-73
2022/06/03 08:40:47;;;;;;;6.35;3.22;;;;;;;;;;5056146;28;20554;-73
2022/06/03 08:43:32;;;;;;;6.55;3.50;;;;;;;;;;5053062;28;20053;-74
2022/06/03 08:46:12;;;;;;;7.80;3.50;;;;;;;;;;5054857;28;20159;-74
2022/06/03 08:48:42;;;;;;;11.23;3.83;;;;;;;;;;5064940;28;20141;-74
2022/06/03 08:51:14;;;;;;;7.65;3.80;;;;;;;;;;5073314;28;20052;-72
2022/06/03 08:53:49;;;;;;;7.03;3.92;;;;;;;;;;5070359;28;20037;-73
2022/06/03 08:56:18;;;;;;;7.32;3.33;;;;;;;;;;5074279;28;20406;-74
2022/06/03 08:58:58;;;;;;;7.88;3.60;;;;;;;;;;5073328;28;20501;-73
2022/06/03 09:01:24;;;;;;;9.07;4.00;;;;;;;;;;5072666;28;20053;-74
2022/06/03 09:03:53;;;;;;;9.80;3.50;;;;;;;;;;5072448;28;20544;-73
2022/06/03 09:06:25;;;;;;;6.90;3.70;;;;;;;;;;5072887;28;20170;-72
2022/06/03 09:08:58;;;;;;;7.45;3.63;;;;;;;;;;5074282;28;20044;-74
2022/06/03 09:11:31;;;;;;;9.75;4.05;;;;;;;;;;5072523;28;20174;-73
2022/06/03 09:13:59;;;;;;;8.55;3.67;;;;;;;;;;5066372;28;20037;-74
2022/06/03 09:16:26;;;;;;;7.63;3.40;;;;;;;;;;5071703;28;20125;-75
2022/06/03 09:18:55;;;;;;;6.85;3.00;;;;;;;;;;5068815;28;20099;-75
2022/06/03 09:21:25;;;;;;;6.13;3.10;;;;;;;;;;5068886;28;20044;-74
2022/06/03 09:23:54;;;;;;;7.57;3.40;;;;;;;;;;5073259;28;20051;-75
2022/06/03 09:26:23;;;;;;;7.65;3.47;;;;;;;;;;5059385;28;20072;-75
2022/06/03 09:28:49;;;;;;;8.90;3.28;;;;;;;;;;5099718;28;20051;-75
2022/06/03 09:31:15;;;;;;;6.10;3.15;;;;;;;;;;5071793;28;20120;-75
2022/06/03 09:33:43;;;;;;;6.70;3.22;;;;;;;;;;5073708;28;20083;-75
2022/06/03 09:36:15;;;;;;;6.10;3.00;;;;;;;;;;5106941;28;20049;-76
2022/06/03 09:38:48;;;;;;;7.00;3.05;;;;;;;;;;5074025;28;20052;-75
2022/06/03 09:41:15;;;;;;;6.28;2.97;;;;;;;;;;5062577;28;20041;-76
2022/06/03 09:43:43;;;;;;;6.78;3.20;;;;;;;;;;5054508;28;20064;-75
2022/06/03 09:46:14;;;;;;;6.53;2.53;;;;;;;;;;5054231;28;20060;-75
2022/06/03 09:48:41;;;;;;;6.75;2.90;;;;;;;;;;5054211;28;20077;-75
2022/06/03 09:51:10;;;;;;;6.82;2.40;;;;;;;;;;5064678;28;20447;-76
2022/06/03 09:53:41;;;;;;;5.95;2.45;;;;;;;;;;5074085;28;20094;-75
2022/06/03 09:56:13;;;;;;;4.63;2.23;;;;;;;;;;5073970;28;20131;-75
2022/06/03 09:58:39;;;;;;;6.13;2.30;;;;;;;;;;5077302;28;20040;-76
2022/06/03 10:01:09;;;;;;;5.75;2.40;;;;;;;;;;5065703;28;20037;-75
2022/06/03 10:03:35;;;;;;;7.22;2.40;;;;;;;;;;5057342;28;20041;-76
2022/06/03 10:06:01;;;;;;;5.68;2.38;;;;;;;;;;5070555;28;20040;-75
2022/06/03 10:12:48;;;;;;;5.45;2.25;;;;;;;;;;5073263;28;20044;-75
2022/06/03 10:14:02;;;;;;;7.50;2.80;;;;;;;;;;5056167;28;20045;-75
2022/06/03 10:16:30;;;;;;;8.73;2.70;;;;;;;;;;5055364;28;20052;-75
2022/06/03 10:18:57;;;;;;;6.82;2.72;;;;;;;;;;5076901;28;20087;-75
2022/06/03 10:21:23;;;;;;;7.63;2.53;;;;;;;;;;5069400;28;20060;-74
2022/06/03 10:23:52;;;;;;;5.50;2.60;;;;;;;;;;5073826;28;20494;-74
2022/06/03 10:26:22;;;;;;;6.20;2.50;;;;;;;;;;5071788;28;20033;-74
2022/06/03 10:28:49;;;;;;;6.03;2.67;;;;;;;;;;5071880;28;20131;-75
2022/06/03 10:31:17;;;;;;;5.13;2.50;;;;;;;;;;5073952;28;20391;-72
2022/06/03 10:33:56;;;;;;;4.45;2.15;;;;;;;;;;5075616;28;20452;-73
2022/06/03 10:36:24;;;;;;;6.53;2.60;;;;;;;;;;5079271;28;20052;-73
2022/06/03 10:38:51;;;;;;;5.50;2.50;;;;;;;;;;5060143;28;20052;-72
2022/06/03 10:41:17;;;;;;;9.98;3.20;;;;;;;;;;5058468;28;20049;-74
2022/06/03 10:43:44;;;;;;;6.28;2.63;;;;;;;;;;5054215;28;20061;-74
2022/06/03 10:46:12;;;;;;;4.35;2.25;;;;;;;;;;5070719;28;20044;-74
2022/06/03 10:48:38;;;;;;;6.68;2.42;;;;;;;;;;5068032;28;20037;-74
2022/06/03 10:51:19;;;;;;;7.55;2.67;;;;;;;;;;5071520;28;20102;-74
2022/06/03 11:02:28;;;;;;;5.10;2.30;;;;;;;;;;5079563;28;20052;-74
2022/06/03 11:05:06;;;;;;;5.95;2.50;;;;;;;;;;5079833;28;20049;-74
2022/06/03 11:07:34;;;;;;;4.38;2.08;;;;;;;;;;5079591;28;20051;-74
2022/06/03 11:10:02;;;;;;;6.63;2.10;;;;;;;;;;5078281;28;20418;-75
2022/06/03 11:12:29;;;;;;;4.13;2.13;;;;;;;;;;5078448;28;20402;-76
2022/06/03 11:14:58;;;;;;;4.15;2.20;;;;;;;;;;5074057;28;20048;-75
2022/06/03 11:17:33;;;;;;;6.63;2.50;;;;;;;;;;5070876;28;20047;-75
2022/06/03 11:19:59;;;;;;;5.68;2.78;;;;;;;;;;5061037;28;20518;-77
2022/06/03 11:22:34;;;;;;;8.88;2.50;;;;;;;;;;5059105;28;20445;-75
2022/06/03 11:25:12;;;;;;;5.57;2.50;;;;;;;;;;5073126;28;20544;-74
2022/06/03 11:27:46;;;;;;;5.03;2.28;;;;;;;;;;5079716;28;20040;-76
2022/06/03 11:30:15;;;;;;;5.95;2.47;;;;;;;;;;5076019;28;20387;-73
2022/06/03 11:32:43;;;;;;;4.95;2.65;;;;;;;;;;5080706;28;20616;-74
2022/06/03 11:35:12;;;;;;;5.43;2.33;;;;;;;;;;5081341;28;20478;-76
2022/06/03 11:37:41;;;;;;;8.02;2.75;;;;;;;;;;5081297;28;20037;-75
2022/06/03 11:40:09;;;;;;;6.25;2.33;;;;;;;;;;5077782;28;20124;-74
2022/06/03 11:42:48;;;;;;;4.72;2.13;;;;;;;;;;5081317;28;20123;-75
2022/06/03 11:45:21;;;;;;;4.93;1.95;;;;;;;;;;5060600;28;20124;-73
2022/06/03 11:48:00;;;;;;;5.20;2.25;;;;;;;;;;5071703;28;20410;-73
2022/06/03 11:50:27;;;;;;;5.32;2.15;;;;;;;;;;5059748;28;20072;-74
2022/06/03 11:52:54;;;;;;;4.80;2.05;;;;;;;;;;5077582;28;20053;-73
2022/06/03 11:55:22;;;;;;;5.78;2.10;;;;;;;;;;5079110;28;20052;-74
2022/06/03 11:57:56;;;;;;;8.30;2.22;;;;;;;;;;5075152;28;20051;-74
2022/06/03 12:00:24;;;;;;;4.35;2.13;;;;;;;;;;5057788;28;20075;-73
2022/06/03 12:03:04;;;;;;;4.95;2.40;;;;;;;;;;5055764;28;20088;-73
2022/06/03 12:05:33;;;;;;;5.00;2.20;;;;;;;;;;5061816;28;20041;-75
2022/06/03 12:08:19;;;;;;;11.95;3.03;;;;;;;;;;5068487;28;20401;-74
2022/06/03 12:10:51;;;;;;;5.93;2.30;;;;;;;;;;5059453;28;20077;-74
2022/06/03 12:13:26;;;;;;;6.88;2.47;;;;;;;;;;5075962;28;20083;-74
2022/06/03 12:15:56;;;;;;;5.70;2.70;;;;;;;;;;5069545;28;20076;-75
2022/06/03 12:18:35;;;;;;;7.28;2.33;;;;;;;;;;5067586;28;20044;-74
2022/06/03 12:21:01;;;;;;;6.72;2.40;;;;;;;;;;5064588;28;20143;-74
2022/06/03 12:23:26;;;;;;;4.82;2.15;;;;;;;;;;5061273;28;20535;-75
2022/06/03 12:25:53;;;;;;;4.88;2.40;;;;;;;;;;5057488;28;20029;-75
2022/06/03 12:28:19;;;;;;;6.70;2.60;;;;;;;;;;5074095;28;20098;-75
2022/06/03 12:30:50;;;;;;;6.18;2.13;;;;;;;;;;5092994;28;20052;-75
2022/06/03 12:33:25;;;;;;;5.47;2.17;;;;;;;;;;5094342;28;20131;-75
2022/06/03 12:35:53;;;;;;;5.20;2.22;;;;;;;;;;5091606;28;20070;-75
2022/06/03 12:38:23;;;;;;;4.43;2.33;;;;;;;;;;5074145;28;20048;-74
2022/06/03 12:40:59;;;;;;;7.55;2.55;;;;;;;;;;5089964;28;20129;-74
2022/06/03 12:43:28;;;;;;;6.95;2.30;;;;;;;;;;5095263;28;20059;-74
2022/06/03 12:45:59;;;;;;;7.22;2.55;;;;;;;;;;5066401;28;20133;-74
2022/06/03 12:48:47;;;;;;;6.20;2.25;;;;;;;;;;5075298;28;20080;-73
2022/06/03 12:51:28;;;;;;;5.53;1.77;;;;;;;;;;5073223;28;20106;-74
2022/06/03 12:54:05;;;;;;;4.95;2.50;;;;;;;;;;5073068;28;20548;-75
2022/06/03 12:56:37;;;;;;;7.53;2.55;;;;;;;;;;5073047;28;20541;-73
2022/06/03 12:59:08;;;;;;;6.57;2.13;;;;;;;;;;5073363;28;20394;-73
2022/06/03 13:01:41;;;;;;;5.55;1.95;;;;;;;;;;5068327;28;20045;-73
2022/06/03 13:04:25;;;;;;;4.57;2.08;;;;;;;;;;5074956;28;20044;-75
2022/06/03 13:07:11;;;;;;;5.68;2.28;;;;;;;;;;5095358;28;20070;-75
2022/06/03 13:09:56;;;;;;;7.47;2.10;;;;;;;;;;5056563;28;20124;-74
2022/06/03 13:12:29;;;;;;;6.75;2.10;;;;;;;;;;5054147;28;20060;-74
2022/06/03 13:14:55;;;;;;;5.13;1.92;;;;;;;;;;5067545;28;20529;-74
2022/06/03 13:17:39;;;;;;;4.75;2.00;;;;;;;;;;5073397;28;20084;-74
2022/06/03 13:20:06;;;;;;;4.95;2.17;;;;;;;;;;5072933;28;20078;-74
2022/06/03 13:22:46;;;;;;;5.55;2.08;;;;;;;;;;5074390;28;20048;-74
2022/06/03 13:25:15;;;;;;;4.32;1.88;;;;;;;;;;5061168;28;20119;-74
2022/06/03 13:28:01;;;;;;;4.20;2.10;;;;;;;;;;5054763;28;20053;-74
2022/06/03 13:30:37;;;;;;;6.47;2.10;;;;;;;;;;5058254;28;20051;-73
2022/06/03 13:33:17;;;;;;;6.93;2.30;;;;;;;;;;5064591;28;20403;-72
2022/06/03 13:36:01;;;;;;;3.75;1.85;;;;;;;;;;5072975;28;20047;-74
2022/06/03 13:38:40;;;;;;;6.55;2.42;;;;;;;;;;5074215;28;20041;-74
2022/06/03 13:44:07;;;;;;;5.47;2.20;;;;;;;;;;5074387;28;20048;-74
2022/06/03 13:46:35;;;;;;;3.85;1.80;;;;;;;;;;5053841;28;20071;-73
2022/06/03 13:49:02;;;;;;;5.13;1.55;;;;;;;;;;5061072;28;20052;-74
2022/06/03 13:51:47;;;;;;;6.38;1.92;;;;;;;;;;5073908;28;20094;-76
2022/06/03 13:54:22;;;;;;;4.57;2.08;;;;;;;;;;5071663;28;20059;-75
2022/06/03 13:56:54;;;;;;;4.60;1.50;;;;;;;;;;5054519;28;20049;-73
2022/06/03 13:59:21;;;;;;;5.07;1.70;;;;;;;;;;5055468;28;20126;-73
2022/06/03 14:01:50;;;;;;;5.65;1.90;;;;;;;;;;5054054;28;20049;-73
2022/06/03 14:04:16;;;;;;;3.30;1.50;;;;;;;;;;5062536;28;20079;-74
2022/06/03 14:06:47;;;;;;;3.88;1.52;;;;;;;;;;5074523;28;20127;-72
2022/06/03 14:09:20;;;;;;;3.40;1.65;;;;;;;;;;5065068;28;20064;-72
2022/06/03 14:12:05;;;;;;;5.60;1.80;;;;;;;;;;5053418;28;20044;-73
2022/06/03 14:14:35;;;;;;;5.15;1.80;;;;;;;;;;5054035;28;20059;-74
2022/06/03 14:17:03;;;;;;;4.60;1.80;;;;;;;;;;5056257;28;20049;-73
2022/06/03 14:19:42;;;;;;;4.05;1.70;;;;;;;;;;5064405;28;20148;-74
2022/06/03 14:22:40;;;;;;;3.47;1.50;;;;;;;;;;5053839;28;20051;-74
2022/06/03 14:25:14;;;;;;;3.90;1.77;;;;;;;;;;5068537;28;20090;-72
2022/06/03 14:27:44;;;;;;;4.68;1.98;;;;;;;;;;5070844;28;20537;-73
2022/06/03 14:30:15;;;;;;;4.83;1.60;;;;;;;;;;5069995;28;20080;-74
2022/06/03 14:32:46;;;;;;;4.75;1.55;;;;;;;;;;5070096;28;20517;-73
2022/06/03 14:35:18;;;;;;;6.53;1.80;;;;;;;;;;5063447;28;20502;-73
2022/06/03 14:37:48;;;;;;;3.85;1.55;;;;;;;;;;5065543;28;20048;-74
2022/06/03 14:40:17;;;;;;;4.18;1.55;;;;;;;;;;5065903;28;20476;-73
2022/06/03 14:42:44;;;;;;;5.15;1.65;;;;;;;;;;5071068;28;20060;-73
2022/06/03 14:45:10;;;;;;;4.47;1.90;;;;;;;;;;5070320;28;20060;-73
2022/06/03 14:47:44;;;;;;;4.28;1.70;;;;;;;;;;5070257;28;20045;-73
2022/06/03 14:50:16;;;;;;;3.60;1.42;;;;;;;;;;5070085;28;20235;-74
2022/06/03 14:52:47;;;;;;;5.38;1.75;;;;;;;;;;5053185;28;20052;-73
2022/06/03 14:55:13;;;;;;;;;;;;;;;;;;5071671;28;20053;-75
2022/06/03 14:57:44;;;;;;;3.47;1.30;;;;;;;;;;5067184;28;19935;-79
2022/06/03 15:00:13;;;;;;;3.97;1.30;;;;;;;;;;5052582;28;20049;-72
2022/06/03 15:02:52;;;;;;;3.70;1.33;;;;;;;;;;5059288;28;20080;-75
2022/06/03 15:05:29;;;;;;;5.45;1.38;;;;;;;;;;5053197;28;20395;-73
2022/06/03 15:08:07;;;;;;;5.28;1.70;;;;;;;;;;5071105;28;20041;-75
2022/06/03 15:10:34;;;;;;;6.00;1.75;;;;;;;;;;5055332;28;20099;-74
2022/06/03 15:13:01;;;;;;;6.68;1.80;;;;;;;;;;5052818;28;20052;-74
2022/06/03 15:15:29;;;;;;;6.18;1.67;;;;;;;;;;5052361;28;20076;-74
2022/06/03 15:17:56;;;;;;;3.38;1.40;;;;;;;;;;5064775;28;20037;-74
2022/06/03 15:20:22;;;;;;;5.53;1.70;;;;;;;;;;5064852;28;20072;-74
2022/06/03 15:22:52;;;;;;;3.88;1.50;;;;;;;;;;5072289;28;20394;-74
2022/06/03 15:25:37;;;;;;;4.18;1.52;;;;;;;;;;5072692;28;20398;-74
2022/06/03 15:28:05;;;;;;;4.28;1.65;;;;;;;;;;5071244;28;20040;-74
2022/06/03 15:30:46;;;;;;;4.40;1.70;;;;;;;;;;5071416;28;20110;-74
2022/06/03 15:33:23;;;;;;;3.60;1.25;;;;;;;;;;5053311;28;20415;-73
2022/06/03 15:35:57;;;;;;;3.30;1.27;;;;;;;;;;5065537;28;20044;-75
2022/06/03 15:38:24;;;;;;;4.38;1.50;;;;;;;;;;5067022;28;20051;-73
2022/06/03 15:40:59;;;;;;;3.65;1.40;;;;;;;;;;5062909;28;20094;-73
2022/06/03 15:43:26;;;;;;;4.68;1.55;;;;;;;;;;5063194;28;20045;-73